createdAt,value
2023-04-22T00:00:57.562Z,88.0795
2023-04-22T00:01:58.814Z,88.2240
2023-04-22T00:03:00.234Z,88.4557
2023-04-22T00:04:01.786Z,88.6569
2023-04-22T00:05:03.495Z,88.1330
2023-04-22T00:06:04.874Z,87.4118
2023-04-22T00:07:06.102Z,86.9468
2023-04-22T00:08:07.370Z,86.6419
2023-04-22T00:09:08.631Z,86.6353
2023-04-22T00:10:09.880Z,87.0433
2023-04-22T00:11:11.101Z,87.2598
2023-04-22T00:12:12.343Z,87.4556
2023-04-22T00:13:13.612Z,87.3551
2023-04-22T00:14:14.839Z,87.4346
2023-04-22T00:15:16.150Z,87.7795
2023-04-22T00:16:17.509Z,87.9965
2023-04-22T00:17:18.832Z,87.8080
2023-04-22T00:18:20.038Z,87.5396
2023-04-22T00:19:21.289Z,86.9894
2023-04-22T00:20:22.533Z,86.5642
2023-04-22T00:21:23.773Z,86.0789
2023-04-22T00:22:25.049Z,85.8489
2023-04-22T00:23:26.287Z,85.8883
2023-04-22T00:24:27.481Z,85.9495
2023-04-22T00:25:28.773Z,85.8226
2023-04-22T00:26:29.978Z,85.7843
2023-04-22T00:27:31.269Z,85.9328
2023-04-22T00:28:32.485Z,86.2287
2023-04-22T00:29:33.738Z,86.4021
2023-04-22T00:30:35.000Z,86.6947
2023-04-22T00:31:36.375Z,86.4162
2023-04-22T00:32:37.693Z,86.3726
2023-04-22T00:33:38.908Z,86.3415
2023-04-22T00:34:40.257Z,86.2585
2023-04-22T00:35:41.470Z,86.4404
2023-04-22T00:36:42.690Z,86.3198
2023-04-22T00:37:43.888Z,86.1613
2023-04-22T00:38:45.313Z,86.2621
2023-04-22T00:39:46.610Z,86.4851
2023-04-22T00:40:47.849Z,86.3089
2023-04-22T00:41:49.079Z,85.9799
2023-04-22T00:42:50.317Z,85.9899
2023-04-22T00:43:51.547Z,86.0616
2023-04-22T00:44:52.787Z,86.1330
2023-04-22T00:45:54.058Z,86.2616
2023-04-22T00:46:55.369Z,86.3492
2023-04-22T00:47:56.688Z,86.5218
2023-04-22T00:48:57.900Z,86.7520
2023-04-22T00:49:59.129Z,86.9289
2023-04-22T00:51:00.412Z,87.1942
2023-04-22T00:52:01.725Z,87.4618
2023-04-22T00:53:02.948Z,87.6583
2023-04-22T00:54:04.143Z,88.4185
2023-04-22T00:55:05.381Z,88.7277
2023-04-22T00:56:06.889Z,88.7654
2023-04-22T00:57:08.138Z,88.8384
2023-04-22T00:58:09.376Z,88.8087
2023-04-22T00:59:10.596Z,88.7917
2023-04-22T01:00:11.855Z,89.0190
2023-04-22T01:01:13.122Z,90.0010
2023-04-22T01:02:14.523Z,90.6686
2023-04-22T01:03:15.956Z,90.9678
2023-04-22T01:04:17.421Z,91.1986
2023-04-22T01:05:18.755Z,91.1387
2023-04-22T01:06:19.989Z,90.8701
2023-04-22T01:07:21.237Z,90.6590
2023-04-22T01:08:22.451Z,90.6039
2023-04-22T01:09:23.705Z,90.5638
2023-04-22T01:10:24.953Z,90.7661
2023-04-22T01:11:26.212Z,91.0079
2023-04-22T01:12:27.448Z,91.3461
2023-04-22T01:13:28.772Z,91.5654
2023-04-22T01:14:30.028Z,91.6505
2023-04-22T01:15:31.508Z,90.9490
2023-04-22T01:16:32.835Z,90.4872
2023-04-22T01:17:34.135Z,90.4076
2023-04-22T01:18:35.375Z,90.0774
2023-04-22T01:19:36.828Z,90.2414
2023-04-22T01:20:38.203Z,90.8748
2023-04-22T01:21:39.417Z,91.3643
2023-04-22T01:22:40.650Z,91.2323
2023-04-22T01:23:41.864Z,90.8400
2023-04-22T01:24:43.104Z,90.4717
2023-04-22T01:25:44.369Z,89.9055
2023-04-22T01:26:45.591Z,89.3442
2023-04-22T01:27:47.100Z,89.0316
2023-04-22T01:28:48.364Z,88.7418
2023-04-22T01:29:49.672Z,88.6317
2023-04-22T01:30:50.936Z,88.8292
2023-04-22T01:31:52.251Z,88.9457
2023-04-22T01:32:53.549Z,89.0423
2023-04-22T01:33:54.795Z,89.0832
2023-04-22T01:34:56.059Z,89.3462
2023-04-22T01:35:57.623Z,89.4784
2023-04-22T01:36:58.910Z,89.6005
2023-04-22T01:38:00.155Z,89.4820
2023-04-22T01:39:01.392Z,89.5475
2023-04-22T01:40:02.597Z,89.9697
2023-04-22T01:41:03.860Z,90.3093
2023-04-22T01:42:05.109Z,90.4673
2023-04-22T01:43:06.325Z,90.3649
2023-04-22T01:44:07.531Z,90.0641
2023-04-22T01:45:08.754Z,89.9036
2023-04-22T01:46:10.077Z,89.6745
2023-04-22T01:47:11.297Z,89.5881
2023-04-22T01:48:12.599Z,89.8011
2023-04-22T01:49:13.835Z,89.9348
2023-04-22T01:50:15.083Z,90.1145
2023-04-22T01:51:16.284Z,89.9986
2023-04-22T01:52:17.521Z,89.9289
2023-04-22T01:53:18.750Z,89.9025
2023-04-22T01:54:19.999Z,90.0891
2023-04-22T01:55:21.228Z,90.3523
2023-04-22T01:56:22.423Z,90.5006
2023-04-22T01:57:23.658Z,90.5709
2023-04-22T01:58:24.860Z,90.6597
2023-04-22T01:59:26.489Z,91.1528
2023-04-22T02:00:27.752Z,91.1239
2023-04-22T02:01:28.965Z,90.8931
2023-04-22T02:02:30.244Z,90.7381
2023-04-22T02:03:31.543Z,90.6298
2023-04-22T02:04:32.952Z,90.6240
2023-04-22T02:05:34.162Z,90.6500
2023-04-22T02:06:35.342Z,90.6529
2023-04-22T02:07:36.666Z,90.6651
2023-04-22T02:08:37.887Z,90.6964
2023-04-22T02:09:39.246Z,90.5871
2023-04-22T02:10:40.605Z,90.6764
2023-04-22T02:11:41.800Z,90.7417
2023-04-22T02:12:43.003Z,90.7266
2023-04-22T02:13:44.198Z,90.9886
2023-04-22T02:14:45.400Z,90.9867
2023-04-22T02:15:46.707Z,91.3953
2023-04-22T02:16:48.013Z,92.2884
2023-04-22T02:17:49.228Z,93.2951
2023-04-22T02:18:50.489Z,94.0617
2023-04-22T02:19:51.684Z,94.5687
2023-04-22T02:20:52.855Z,94.9680
2023-04-22T02:21:54.083Z,94.6309
2023-04-22T02:22:55.295Z,94.0224
2023-04-22T02:23:56.506Z,93.7508
2023-04-22T02:24:57.741Z,93.6591
2023-04-22T02:25:58.962Z,93.7254
2023-04-22T02:27:00.135Z,93.6221
2023-04-22T02:28:01.343Z,93.6713
2023-04-22T02:29:02.539Z,94.3323
2023-04-22T02:30:03.782Z,95.1312
2023-04-22T02:31:05.058Z,95.3885
2023-04-22T02:32:06.224Z,94.8178
2023-04-22T02:33:07.558Z,93.7280
2023-04-22T02:34:08.835Z,93.4878
2023-04-22T02:35:10.021Z,93.3656
2023-04-22T02:36:11.222Z,93.5905
2023-04-22T02:37:12.429Z,93.6138
2023-04-22T02:38:13.659Z,93.5428
2023-04-22T02:39:14.876Z,93.7645
2023-04-22T02:40:16.102Z,93.7719
2023-04-22T02:41:17.317Z,93.9226
2023-04-22T02:42:18.499Z,93.8948
2023-04-22T02:43:19.685Z,93.6873
2023-04-22T02:44:20.908Z,94.4790
2023-04-22T02:45:22.116Z,94.5760
2023-04-22T02:46:23.327Z,94.7594
2023-04-22T02:47:24.556Z,95.0572
2023-04-22T02:48:25.748Z,95.2162
2023-04-22T02:49:27.030Z,95.2264
2023-04-22T02:50:28.241Z,95.2852
2023-04-22T02:51:29.427Z,94.7583
2023-04-22T02:52:30.632Z,93.6581
2023-04-22T02:53:31.826Z,93.4872
2023-04-22T02:54:33.045Z,93.6526
2023-04-22T02:55:34.271Z,93.7994
2023-04-22T02:56:35.466Z,93.9461
2023-04-22T02:57:36.693Z,94.1004
2023-04-22T02:58:37.896Z,94.2899
2023-04-22T02:59:39.272Z,94.5989
2023-04-22T03:00:40.570Z,94.6554
2023-04-22T03:01:41.813Z,94.6496
2023-04-22T03:02:43.431Z,94.7391
2023-04-22T03:03:44.934Z,94.7209
2023-04-22T03:04:46.204Z,94.7224
2023-04-22T03:05:47.394Z,94.7916
2023-04-22T03:06:48.594Z,94.8058
2023-04-22T03:07:49.781Z,94.7286
2023-04-22T03:08:50.985Z,94.7340
2023-04-22T03:09:52.200Z,94.8135
2023-04-22T03:10:53.408Z,94.7455
2023-04-22T03:11:54.596Z,94.5707
2023-04-22T03:12:55.792Z,94.1585
2023-04-22T03:13:57.032Z,94.2409
2023-04-22T03:14:58.247Z,94.3630
2023-04-22T03:15:59.506Z,94.2024
2023-04-22T03:17:00.726Z,93.9468
2023-04-22T03:18:01.983Z,93.9332
2023-04-22T03:19:03.212Z,93.7334
2023-04-22T03:20:04.468Z,93.8660
2023-04-22T03:21:05.693Z,94.0484
2023-04-22T03:22:06.921Z,93.9265
2023-04-22T03:23:08.155Z,93.6637
2023-04-22T03:24:09.395Z,93.7136
2023-04-22T03:25:10.638Z,93.8608
2023-04-22T03:26:11.894Z,93.9497
2023-04-22T03:27:13.135Z,93.9881
2023-04-22T03:28:14.367Z,94.4166
2023-04-22T03:29:15.609Z,94.4627
2023-04-22T03:30:16.844Z,94.3267
2023-04-22T03:31:18.095Z,94.2678
2023-04-22T03:32:19.290Z,94.3474
2023-04-22T03:33:20.594Z,94.3937
2023-04-22T03:34:21.819Z,92.8048
2023-04-22T03:35:23.057Z,91.9352
2023-04-22T03:36:24.352Z,91.8825
2023-04-22T03:37:25.616Z,91.9206
2023-04-22T03:38:26.866Z,92.1559
2023-04-22T03:39:28.119Z,92.7437
2023-04-22T03:40:29.337Z,93.1969
2023-04-22T03:41:30.579Z,93.2924
2023-04-22T03:42:31.862Z,93.5587
2023-04-22T03:43:33.093Z,93.8626
2023-04-22T03:44:34.347Z,94.0274
2023-04-22T03:45:35.639Z,94.1267
2023-04-22T03:46:36.851Z,94.5227
2023-04-22T03:47:38.478Z,94.9520
2023-04-22T03:48:39.747Z,94.7375
2023-04-22T03:49:41.118Z,94.2981
2023-04-22T03:50:42.588Z,94.0457
2023-04-22T03:51:43.837Z,93.6324
2023-04-22T03:52:45.312Z,93.3764
2023-04-22T03:53:46.570Z,93.4800
2023-04-22T03:54:47.822Z,93.6776
2023-04-22T03:55:49.063Z,93.1079
2023-04-22T03:56:50.303Z,94.1826
2023-04-22T03:57:51.552Z,93.7522
2023-04-22T03:58:52.777Z,93.0899
2023-04-22T03:59:54.038Z,93.4847
2023-04-22T04:00:55.258Z,93.7645
2023-04-22T04:01:56.619Z,93.8620
2023-04-22T04:02:57.962Z,94.0276
2023-04-22T04:03:59.576Z,93.9946
2023-04-22T04:05:01.325Z,94.2802
2023-04-22T04:06:02.655Z,94.9018
2023-04-22T04:07:03.892Z,94.8645
2023-04-22T04:08:05.097Z,94.5490
2023-04-22T04:09:06.423Z,94.2463
2023-04-22T04:10:07.636Z,93.9572
2023-04-22T04:11:08.912Z,93.7785
2023-04-22T04:12:10.376Z,93.8593
2023-04-22T04:13:11.608Z,93.8658
2023-04-22T04:14:12.869Z,94.1542
2023-04-22T04:15:14.120Z,94.6389
2023-04-22T04:16:15.432Z,94.8675
2023-04-22T04:17:16.703Z,95.1575
2023-04-22T04:18:17.976Z,95.2794
2023-04-22T04:19:19.230Z,95.2454
2023-04-22T04:20:20.464Z,95.2490
2023-04-22T04:21:21.697Z,95.2702
2023-04-22T04:22:22.953Z,95.1536
2023-04-22T04:23:24.181Z,95.2385
2023-04-22T04:24:25.425Z,95.1053
2023-04-22T04:25:26.749Z,94.9385
2023-04-22T04:26:27.991Z,94.6584
2023-04-22T04:27:29.220Z,94.5103
2023-04-22T04:28:30.515Z,94.5088
2023-04-22T04:29:31.738Z,94.6034
2023-04-22T04:30:33.632Z,94.5143
2023-04-22T04:31:35.671Z,94.1517
2023-04-22T04:32:36.930Z,93.8522
2023-04-22T04:33:38.246Z,93.7545
2023-04-22T04:34:39.534Z,93.8127
2023-04-22T04:35:40.742Z,93.7600
2023-04-22T04:36:42.003Z,93.7115
2023-04-22T04:37:43.242Z,93.6077
2023-04-22T04:38:44.472Z,93.5751
2023-04-22T04:39:45.751Z,93.6855
2023-04-22T04:40:47.020Z,93.7744
2023-04-22T04:41:48.273Z,93.7869
2023-04-22T04:42:49.514Z,93.5981
2023-04-22T04:43:50.778Z,93.0422
2023-04-22T04:44:52.011Z,92.8758
2023-04-22T04:45:53.283Z,92.8757
2023-04-22T04:46:54.651Z,92.9683
2023-04-22T04:47:55.980Z,92.9011
2023-04-22T04:48:57.229Z,92.4451
2023-04-22T04:49:58.462Z,92.1226
2023-04-22T04:50:59.699Z,92.1924
2023-04-22T04:52:01.835Z,92.5294
2023-04-22T04:53:03.170Z,92.8960
2023-04-22T04:54:04.393Z,92.3822
2023-04-22T04:55:05.640Z,91.8041
2023-04-22T04:56:06.888Z,91.5843
2023-04-22T04:57:08.153Z,92.0101
2023-04-22T04:58:09.414Z,92.2119
2023-04-22T04:59:10.663Z,92.2983
2023-04-22T05:00:11.889Z,91.9306
2023-04-22T05:01:13.184Z,91.5986
2023-04-22T05:02:14.762Z,91.1646
2023-04-22T05:03:16.276Z,91.7699
2023-04-22T05:04:17.816Z,92.2341
2023-04-22T05:05:19.203Z,91.8044
2023-04-22T05:06:20.554Z,90.9397
2023-04-22T05:07:21.785Z,90.9116
2023-04-22T05:08:23.027Z,90.9522
2023-04-22T05:09:24.261Z,91.2630
2023-04-22T05:10:25.582Z,91.5309
2023-04-22T05:11:26.848Z,91.6909
2023-04-22T05:12:28.083Z,91.6136
2023-04-22T05:13:29.323Z,91.4028
2023-04-22T05:14:30.800Z,91.2376
2023-04-22T05:15:32.059Z,91.0702
2023-04-22T05:16:33.341Z,90.8870
2023-04-22T05:17:34.632Z,90.9888
2023-04-22T05:18:35.865Z,91.0468
2023-04-22T05:19:37.234Z,90.8969
2023-04-22T05:20:38.562Z,90.9139
2023-04-22T05:21:39.889Z,91.2122
2023-04-22T05:22:41.077Z,91.7456
2023-04-22T05:23:42.318Z,92.4694
2023-04-22T05:24:43.801Z,92.4734
2023-04-22T05:25:45.004Z,92.7752
2023-04-22T05:26:46.274Z,93.0380
2023-04-22T05:27:47.567Z,93.1864
2023-04-22T05:28:48.802Z,93.3973
2023-04-22T05:29:50.056Z,93.6834
2023-04-22T05:30:51.286Z,93.9825
2023-04-22T05:31:52.865Z,93.9245
2023-04-22T05:32:54.153Z,94.0751
2023-04-22T05:33:55.468Z,94.1932
2023-04-22T05:34:56.708Z,94.0343
2023-04-22T05:35:57.944Z,93.7824
2023-04-22T05:36:59.221Z,93.5133
2023-04-22T05:38:00.462Z,93.4272
2023-04-22T05:39:01.724Z,92.9592
2023-04-22T05:40:03.080Z,92.4795
2023-04-22T05:41:04.294Z,92.0708
2023-04-22T05:42:05.541Z,91.7610
2023-04-22T05:43:06.790Z,91.7787
2023-04-22T05:44:08.030Z,92.0991
2023-04-22T05:45:09.298Z,92.5050
2023-04-22T05:46:10.539Z,92.6118
2023-04-22T05:47:12.153Z,92.6648
2023-04-22T05:48:13.349Z,92.6675
2023-04-22T05:49:14.593Z,92.4851
2023-04-22T05:50:15.827Z,92.3901
2023-04-22T05:51:17.067Z,92.3396
2023-04-22T05:52:18.339Z,92.1818
2023-04-22T05:53:19.724Z,92.3094
2023-04-22T05:54:20.953Z,92.2227
2023-04-22T05:55:22.199Z,92.3638
2023-04-22T05:56:23.463Z,92.3729
2023-04-22T05:57:24.720Z,92.3252
2023-04-22T05:58:26.009Z,92.5280
2023-04-22T05:59:27.327Z,92.4044
2023-04-22T06:00:28.550Z,92.4848
2023-04-22T06:01:29.787Z,92.1116
2023-04-22T06:02:31.182Z,92.4546
2023-04-22T06:03:32.764Z,92.0992
2023-04-22T06:04:37.175Z,91.6841
2023-04-22T06:05:35.261Z,91.2061
2023-04-22T06:06:36.738Z,90.2033
2023-04-22T06:07:37.982Z,90.7482
2023-04-22T06:08:39.250Z,91.6217
2023-04-22T06:09:40.648Z,91.4331
2023-04-22T06:10:42.049Z,91.1142
2023-04-22T06:11:43.321Z,90.7107
2023-04-22T06:12:44.573Z,90.3168
2023-04-22T06:13:45.904Z,89.8047
2023-04-22T06:14:47.131Z,89.6292
2023-04-22T06:15:48.397Z,90.1612
2023-04-22T06:16:49.654Z,90.2283
2023-04-22T06:17:50.945Z,89.4975
2023-04-22T06:18:52.214Z,88.5021
2023-04-22T06:19:53.503Z,88.6743
2023-04-22T06:20:56.092Z,88.9842
2023-04-22T06:21:57.359Z,88.0262
2023-04-22T06:22:58.631Z,87.0209
2023-04-22T06:23:59.862Z,86.7613
2023-04-22T06:25:01.144Z,86.5869
2023-04-22T06:26:02.380Z,85.6524
2023-04-22T06:27:03.584Z,85.6624
2023-04-22T06:28:04.832Z,85.5274
2023-04-22T06:29:06.089Z,85.3942
2023-04-22T06:30:07.332Z,85.3471
2023-04-22T06:31:08.602Z,85.8075
2023-04-22T06:32:09.834Z,85.8861
2023-04-22T06:33:11.092Z,86.1592
2023-04-22T06:34:12.320Z,86.5239
2023-04-22T06:35:13.608Z,86.3553
2023-04-22T06:36:14.861Z,84.6633
2023-04-22T06:37:16.086Z,83.9831
2023-04-22T06:38:17.332Z,83.5536
2023-04-22T06:39:18.815Z,84.0716
2023-04-22T06:40:20.067Z,83.6866
2023-04-22T06:41:21.302Z,84.5218
2023-04-22T06:42:22.574Z,84.5447
2023-04-22T06:43:23.829Z,84.8618
2023-04-22T06:44:25.134Z,83.8968
2023-04-22T06:45:26.392Z,83.5519
2023-04-22T06:46:27.676Z,84.2299
2023-04-22T06:47:29.041Z,84.9595
2023-04-22T06:48:30.328Z,85.2680
2023-04-22T06:49:31.517Z,85.3196
2023-04-22T06:50:32.766Z,84.6669
2023-04-22T06:51:34.005Z,81.2115
2023-04-22T06:52:35.274Z,80.7905
2023-04-22T06:53:36.537Z,81.1096
2023-04-22T06:54:37.805Z,80.4993
2023-04-22T06:55:39.025Z,81.8588
2023-04-22T06:56:40.259Z,81.7444
2023-04-22T06:57:41.569Z,80.9592
2023-04-22T06:58:42.840Z,81.2156
2023-04-22T06:59:46.728Z,81.1489
2023-04-22T07:00:44.775Z,80.5343
2023-04-22T07:01:46.029Z,79.9697
2023-04-22T07:02:47.298Z,78.9022
2023-04-22T07:03:48.679Z,77.0383
2023-04-22T07:04:49.910Z,76.2875
2023-04-22T07:05:51.181Z,77.6276
2023-04-22T07:06:52.482Z,78.5591
2023-04-22T07:07:53.696Z,79.4965
2023-04-22T07:08:54.957Z,78.1890
2023-04-22T07:09:56.168Z,77.9389
2023-04-22T07:10:57.429Z,79.4411
2023-04-22T07:11:58.704Z,80.1502
2023-04-22T07:12:59.995Z,81.0607
2023-04-22T07:14:01.232Z,81.6877
2023-04-22T07:15:02.457Z,81.3011
2023-04-22T07:16:03.692Z,80.6764
2023-04-22T07:17:04.982Z,80.7467
2023-04-22T07:18:06.221Z,81.1099
2023-04-22T07:19:07.454Z,80.0341
2023-04-22T07:20:08.710Z,79.3135
2023-04-22T07:21:10.056Z,77.6939
2023-04-22T07:22:11.252Z,78.4632
2023-04-22T07:23:12.510Z,78.1600
2023-04-22T07:24:13.746Z,77.6066
2023-04-22T07:25:15.006Z,77.4385
2023-04-22T07:26:16.248Z,78.4371
2023-04-22T07:27:17.488Z,78.7679
2023-04-22T07:28:18.724Z,77.6389
2023-04-22T07:29:20.235Z,77.1563
2023-04-22T07:30:21.499Z,78.1424
2023-04-22T07:31:22.814Z,78.0246
2023-04-22T07:32:24.065Z,76.9375
2023-04-22T07:33:25.278Z,76.6383
2023-04-22T07:34:26.537Z,75.4213
2023-04-22T07:35:27.765Z,74.6459
2023-04-22T07:36:29.055Z,75.7961
2023-04-22T07:37:30.307Z,76.9784
2023-04-22T07:38:31.567Z,73.9904
2023-04-22T07:39:32.814Z,75.6827
2023-04-22T07:40:34.075Z,74.2700
2023-04-22T07:41:35.320Z,74.9391
2023-04-22T07:42:36.589Z,74.8166
2023-04-22T07:43:37.832Z,75.0464
2023-04-22T07:44:39.608Z,76.5229
2023-04-22T07:45:40.990Z,76.6616
2023-04-22T07:46:42.228Z,77.0378
2023-04-22T07:47:43.472Z,76.4762
2023-04-22T07:48:44.733Z,75.2978
2023-04-22T07:49:45.973Z,73.3953
2023-04-22T07:50:47.223Z,75.6816
2023-04-22T07:51:48.463Z,75.8428
2023-04-22T07:52:49.677Z,74.2386
2023-04-22T07:53:51.113Z,73.0466
2023-04-22T07:54:52.353Z,73.5033
2023-04-22T07:55:53.613Z,75.1149
2023-04-22T07:56:54.847Z,75.2088
2023-04-22T07:57:56.081Z,73.8369
2023-04-22T07:58:57.321Z,72.7114
2023-04-22T07:59:58.579Z,72.7087
2023-04-22T08:00:59.853Z,71.0034
2023-04-22T08:02:01.149Z,71.6952
2023-04-22T08:03:02.472Z,71.9339
2023-04-22T08:04:03.972Z,72.5270
2023-04-22T08:05:05.426Z,71.5453
2023-04-22T08:06:06.644Z,70.3831
2023-04-22T08:07:26.447Z,69.1823
2023-04-22T08:08:07.935Z,66.5299
2023-04-22T08:09:09.228Z,68.3918
2023-04-22T08:10:10.468Z,70.0046
2023-04-22T08:11:11.956Z,70.6358
2023-04-22T08:12:13.192Z,72.8077
2023-04-22T08:13:15.826Z,69.9493
2023-04-22T08:14:15.449Z,67.2172
2023-04-22T08:15:16.699Z,65.7328
2023-04-22T08:16:18.228Z,66.3381
2023-04-22T08:17:19.425Z,65.6795
2023-04-22T08:18:20.660Z,63.3560
2023-04-22T08:19:21.922Z,63.2458
2023-04-22T08:20:23.189Z,63.4903
2023-04-22T08:21:24.445Z,64.4738
2023-04-22T08:22:25.711Z,65.8352
2023-04-22T08:23:26.946Z,65.7639
2023-04-22T08:24:28.215Z,67.4477
2023-04-22T08:25:29.490Z,67.7227
2023-04-22T08:26:30.759Z,66.9976
2023-04-22T08:27:32.011Z,67.9647
2023-04-22T08:28:33.282Z,66.4917
2023-04-22T08:29:34.547Z,66.3188
2023-04-22T08:30:35.795Z,64.0488
2023-04-22T08:31:37.319Z,63.4289
2023-04-22T08:32:38.585Z,62.4492
2023-04-22T08:33:39.859Z,60.6986
2023-04-22T08:34:41.611Z,61.5480
2023-04-22T08:35:42.850Z,60.7067
2023-04-22T08:36:44.151Z,61.2180
2023-04-22T08:37:45.408Z,61.9366
2023-04-22T08:38:48.299Z,61.3167
2023-04-22T08:39:47.654Z,61.4623
2023-04-22T08:40:48.913Z,61.6916
2023-04-22T08:41:50.263Z,62.6507
2023-04-22T08:42:51.484Z,61.5913
2023-04-22T08:43:52.759Z,61.9337
2023-04-22T08:44:54.012Z,61.4721
2023-04-22T08:45:55.253Z,61.1895
2023-04-22T08:46:56.671Z,61.9883
2023-04-22T08:47:58.059Z,61.3195
2023-04-22T08:48:59.306Z,61.5822
2023-04-22T08:50:00.566Z,61.5827
2023-04-22T08:51:01.834Z,62.3830
2023-04-22T08:52:03.086Z,62.7613
2023-04-22T08:53:04.357Z,61.3297
2023-04-22T08:54:05.641Z,58.2810
2023-04-22T08:55:06.872Z,56.5087
2023-04-22T08:56:08.349Z,55.8477
2023-04-22T08:57:09.643Z,55.8658
2023-04-22T08:58:11.608Z,57.7381
2023-04-22T08:59:12.854Z,58.6181
2023-04-22T09:00:14.151Z,56.0879
2023-04-22T09:01:15.407Z,54.5897
2023-04-22T09:02:16.656Z,54.1084
2023-04-22T09:03:17.982Z,51.2504
2023-04-22T09:04:19.334Z,50.5504
2023-04-22T09:05:20.609Z,49.8069
2023-04-22T09:06:21.858Z,50.1318
2023-04-22T09:07:23.104Z,52.1210
2023-04-22T09:08:24.385Z,54.2226
2023-04-22T09:09:25.611Z,58.0734
2023-04-22T09:10:26.845Z,60.1109
2023-04-22T09:11:28.096Z,59.0263
2023-04-22T09:12:29.371Z,58.8707
2023-04-22T09:13:30.648Z,58.6106
2023-04-22T09:14:31.850Z,57.9143
2023-04-22T09:15:33.124Z,56.8916
2023-04-22T09:16:34.518Z,57.2202
2023-04-22T09:17:35.841Z,56.2477
2023-04-22T09:18:37.078Z,55.0812
2023-04-22T09:19:38.510Z,53.7120
2023-04-22T09:20:39.875Z,53.0018
2023-04-22T09:21:41.113Z,53.4446
2023-04-22T09:22:42.366Z,52.9658
2023-04-22T09:23:43.621Z,54.8535
2023-04-22T09:24:44.906Z,59.2170
2023-04-22T09:25:46.154Z,56.8308
2023-04-22T09:26:47.406Z,55.0347
2023-04-22T09:27:49.646Z,55.4207
2023-04-22T09:28:51.156Z,52.8803
2023-04-22T09:29:52.401Z,54.8190
2023-04-22T09:30:53.651Z,56.2727
2023-04-22T09:31:55.008Z,57.1746
2023-04-22T09:32:56.336Z,55.8415
2023-04-22T09:33:57.705Z,58.7823
2023-04-22T09:34:58.949Z,56.9243
2023-04-22T09:36:00.554Z,55.7793
2023-04-22T09:37:01.807Z,56.8211
2023-04-22T09:38:03.095Z,57.3726
2023-04-22T09:39:04.356Z,56.2170
2023-04-22T09:40:05.578Z,54.8211
2023-04-22T09:41:06.896Z,52.9104
2023-04-22T09:42:08.131Z,49.8961
2023-04-22T09:43:09.422Z,49.0518
2023-04-22T09:44:10.705Z,51.8353
2023-04-22T09:45:11.967Z,52.8712
2023-04-22T09:46:13.274Z,52.4473
2023-04-22T09:47:14.468Z,51.5233
2023-04-22T09:48:15.745Z,50.7583
2023-04-22T09:49:17.405Z,52.7092
2023-04-22T09:50:18.776Z,53.0412
2023-04-22T09:51:20.099Z,51.9902
2023-04-22T09:52:21.373Z,52.6844
2023-04-22T09:53:22.665Z,54.4804
2023-04-22T09:54:23.940Z,53.1801
2023-04-22T09:55:25.221Z,52.0756
2023-04-22T09:56:26.535Z,53.0349
2023-04-22T09:57:27.822Z,51.6625
2023-04-22T09:58:29.098Z,48.0504
2023-04-22T09:59:30.413Z,47.0455
2023-04-22T10:00:31.766Z,47.4689
2023-04-22T10:01:33.099Z,45.9477
2023-04-22T10:02:34.440Z,46.4107
2023-04-22T10:03:35.765Z,49.8274
2023-04-22T10:04:37.027Z,49.5844
2023-04-22T10:05:38.325Z,52.4313
2023-04-22T10:06:39.613Z,54.6437
2023-04-22T10:07:40.917Z,54.5325
2023-04-22T10:08:42.229Z,54.1742
2023-04-22T10:09:43.691Z,52.2241
2023-04-22T10:10:45.030Z,49.2698
2023-04-22T10:11:46.364Z,50.3643
2023-04-22T10:12:47.658Z,51.0026
2023-04-22T10:13:48.946Z,50.1533
2023-04-22T10:14:54.094Z,50.3586
2023-04-22T10:15:55.394Z,51.2113
2023-04-22T10:16:56.824Z,51.8488
2023-04-22T10:17:58.160Z,53.8445
2023-04-22T10:18:59.410Z,51.1363
2023-04-22T10:20:00.692Z,51.0611
2023-04-22T10:21:03.586Z,52.2376
2023-04-22T10:22:04.894Z,53.6464
2023-04-22T10:23:06.248Z,52.6785
2023-04-22T10:24:07.519Z,48.6517
2023-04-22T10:25:08.795Z,49.7545
2023-04-22T10:26:10.064Z,48.5149
2023-04-22T10:27:11.392Z,49.6680
2023-04-22T10:28:12.702Z,49.9404
2023-04-22T10:29:14.080Z,48.7350
2023-04-22T10:30:15.374Z,49.0842
2023-04-22T10:31:16.666Z,50.9075
2023-04-22T10:32:17.970Z,53.0431
2023-04-22T10:33:19.242Z,52.9739
2023-04-22T10:34:20.514Z,53.3919
2023-04-22T10:35:21.862Z,52.6060
2023-04-22T10:36:23.141Z,51.3910
2023-04-22T10:37:24.442Z,51.2170
2023-04-22T10:38:25.721Z,51.5422
2023-04-22T10:39:27.063Z,49.7133
2023-04-22T10:40:28.388Z,51.1701
2023-04-22T10:42:32.984Z,51.7396
2023-04-22T10:43:34.314Z,50.3992
2023-04-22T10:44:35.606Z,52.4408
2023-04-22T10:45:36.947Z,54.5539
2023-04-22T10:46:38.415Z,56.7835
2023-04-22T10:47:39.819Z,54.4913
2023-04-22T10:48:41.100Z,55.4081
2023-04-22T10:49:42.398Z,55.8364
2023-04-22T10:50:43.692Z,55.2035
2023-04-22T10:51:44.958Z,53.3457
2023-04-22T10:52:46.242Z,54.0687
2023-04-22T10:53:47.535Z,54.8040
2023-04-22T10:54:48.831Z,54.5859
2023-04-22T10:55:50.151Z,51.8403
2023-04-22T10:56:57.648Z,50.0845
2023-04-22T10:57:51.494Z,51.1087
2023-04-22T10:58:52.787Z,50.5825
2023-04-22T10:59:54.080Z,53.5367
2023-04-22T11:00:55.358Z,52.1372
2023-04-22T11:01:56.703Z,53.4625
2023-04-22T11:02:58.153Z,52.9032
2023-04-22T11:03:59.549Z,53.7702
2023-04-22T11:05:00.817Z,53.7355
2023-04-22T11:06:02.099Z,54.8546
2023-04-22T11:07:03.396Z,51.2314
2023-04-22T11:08:04.730Z,52.2114
2023-04-22T11:09:06.020Z,52.9274
2023-04-22T11:10:07.316Z,53.9808
2023-04-22T11:11:08.607Z,52.4339
2023-04-22T11:12:09.898Z,51.0207
2023-04-22T11:13:11.176Z,49.0635
2023-04-22T11:14:12.541Z,50.3238
2023-04-22T11:15:13.844Z,50.8837
2023-04-22T11:16:15.139Z,51.0531
2023-04-22T11:17:16.402Z,47.7124
2023-04-22T11:18:17.702Z,50.0810
2023-04-22T11:19:18.995Z,49.5658
2023-04-22T11:20:20.328Z,48.9360
2023-04-22T11:21:21.651Z,49.1465
2023-04-22T11:22:22.937Z,47.9251
2023-04-22T11:23:24.271Z,48.0989
2023-04-22T11:24:25.599Z,47.9669
2023-04-22T11:25:26.937Z,46.9720
2023-04-22T11:26:28.175Z,48.3409
2023-04-22T11:27:29.452Z,49.2786
2023-04-22T11:28:30.765Z,48.9973
2023-04-22T11:29:32.056Z,49.8423
2023-04-22T11:30:33.344Z,49.5164
2023-04-22T11:31:34.690Z,49.5664
2023-04-22T11:32:36.007Z,49.9912
2023-04-22T11:33:37.318Z,51.9216
2023-04-22T11:34:38.640Z,50.5899
2023-04-22T11:35:39.924Z,49.8533
2023-04-22T11:36:41.182Z,49.0886
2023-04-22T11:37:42.490Z,48.6310
2023-04-22T11:38:43.769Z,47.8066
2023-04-22T11:40:07.762Z,48.9201
2023-04-22T11:40:46.593Z,49.7263
2023-04-22T11:41:48.553Z,50.7375
2023-04-22T11:42:49.848Z,51.0571
2023-04-22T11:43:51.289Z,51.3852
2023-04-22T11:44:52.591Z,52.0725
2023-04-22T11:45:54.068Z,50.5453
2023-04-22T11:46:55.315Z,50.4485
2023-04-22T11:47:56.994Z,49.4037
2023-04-22T11:48:58.284Z,49.3614
2023-04-22T11:49:59.621Z,50.3548
2023-04-22T11:51:00.907Z,50.2647
2023-04-22T11:52:02.211Z,49.4641
2023-04-22T11:53:03.493Z,47.2856
2023-04-22T11:54:04.759Z,48.5407
2023-04-22T11:55:06.008Z,49.5433
2023-04-22T11:56:07.304Z,49.7662
2023-04-22T11:57:08.622Z,48.2366
2023-04-22T11:58:09.901Z,46.1169
2023-04-22T11:59:11.149Z,46.9433
2023-04-22T12:00:12.455Z,45.8891
2023-04-22T12:01:13.719Z,46.6026
2023-04-22T12:02:15.064Z,46.8108
2023-04-22T12:03:16.601Z,46.6484
2023-04-22T12:04:18.012Z,46.5036
2023-04-22T12:05:19.378Z,48.5388
2023-04-22T12:06:20.624Z,48.3049
2023-04-22T12:07:21.927Z,47.3704
2023-04-22T12:08:23.198Z,47.8734
2023-04-22T12:09:24.507Z,47.4794
2023-04-22T12:10:25.812Z,46.9322
2023-04-22T12:11:27.080Z,47.2330
2023-04-22T12:12:28.339Z,48.3833
2023-04-22T12:13:29.930Z,50.6716
2023-04-22T12:14:31.218Z,48.3175
2023-04-22T12:15:32.528Z,48.6303
2023-04-22T12:16:33.825Z,49.6753
2023-04-22T12:17:35.142Z,49.8486
2023-04-22T12:18:36.380Z,50.3269
2023-04-22T12:19:37.856Z,51.0526
2023-04-22T12:20:39.359Z,50.8655
2023-04-22T12:21:40.626Z,51.4774
2023-04-22T12:22:41.960Z,51.5661